Time;durP1;ratioP1;P1;durP2;ratioP2;P2;SDS_P1;SDS_P2;PMS_P1;PMS_P2;Temp;Humidity;BMP_temperature;BMP_pressure;BME280_temperature;BME280_humidity;BME280_pressure;Samples;Min_cycle;Max_cycle;Signal;HPM_P1;HPM_P2
2023/11/16 00:00:36;;;;;;;0.50;0.30;;;7.60;99.90;;;;;;5096641;28;20490;-77
2023/11/16 00:03:05;;;;;;;0.40;0.40;;;7.60;99.90;;;;;;5096457;28;20460;-77
2023/11/16 00:05:35;;;;;;;0.30;0.30;;;7.60;99.90;;;;;;5096565;28;20501;-77
2023/11/16 00:08:06;;;;;;;0.50;0.40;;;7.60;99.90;;;;;;5096509;28;20526;-77
2023/11/16 00:10:34;;;;;;;0.40;0.40;;;7.50;99.90;;;;;;5095965;28;20460;-77
2023/11/16 00:13:01;;;;;;;0.40;0.30;;;7.50;99.90;;;;;;5095862;28;20468;-77
2023/11/16 00:15:28;;;;;;;0.37;0.30;;;7.50;99.90;;;;;;5096229;28;20472;-77
2023/11/16 00:17:54;;;;;;;0.40;0.40;;;7.40;99.90;;;;;;5096081;28;20825;-77
2023/11/16 00:20:22;;;;;;;0.40;0.40;;;7.50;99.90;;;;;;5096026;28;20440;-77
2023/11/16 00:22:48;;;;;;;0.40;0.30;;;7.50;99.90;;;;;;5095589;28;20502;-77
2023/11/16 00:25:17;;;;;;;1.10;0.50;;;7.50;99.90;;;;;;5095944;28;20435;-77
2023/11/16 00:27:44;;;;;;;24.43;0.87;;;7.60;99.90;;;;;;5095807;28;20480;-77
2023/11/16 00:30:13;;;;;;;3.63;0.53;;;7.60;99.90;;;;;;5095841;28;20444;-77
2023/11/16 00:32:40;;;;;;;0.60;0.50;;;7.70;99.90;;;;;;5095822;28;20802;-77
2023/11/16 00:35:08;;;;;;;1.70;1.37;;;7.70;99.90;;;;;;5095428;28;20936;-77
2023/11/16 00:37:35;;;;;;;0.50;0.40;;;7.70;99.90;;;;;;5095753;28;20485;-76
2023/11/16 00:40:04;;;;;;;0.40;0.30;;;7.70;99.90;;;;;;5096156;28;20436;-76
2023/11/16 00:42:35;;;;;;;0.40;0.30;;;7.80;99.90;;;;;;5096253;28;20558;-76
2023/11/16 00:45:02;;;;;;;4.00;0.63;;;7.80;99.90;;;;;;5097231;28;20428;-78
2023/11/16 00:47:29;;;;;;;1.90;0.43;;;7.80;99.90;;;;;;5096126;28;20490;-78
2023/11/16 00:49:56;;;;;;;0.93;0.40;;;7.70;99.90;;;;;;5096875;28;20531;-77
2023/11/16 00:52:24;;;;;;;6.20;0.50;;;7.70;99.90;;;;;;5095390;28;20563;-77
2023/11/16 00:54:51;;;;;;;3.23;0.93;;;7.70;99.90;;;;;;5095399;28;20475;-77
2023/11/16 00:57:20;;;;;;;4.47;0.60;;;7.70;99.90;;;;;;5095307;28;20436;-77
2023/11/16 00:59:48;;;;;;;4.10;0.60;;;7.80;99.90;;;;;;5095248;28;20451;-77
2023/11/16 01:02:15;;;;;;;2.63;0.47;;;7.80;99.90;;;;;;5095227;28;20467;-77
2023/11/16 01:04:42;;;;;;;0.37;0.30;;;7.80;99.90;;;;;;5095278;28;20451;-77
2023/11/16 01:07:10;;;;;;;0.47;0.47;;;7.80;99.90;;;;;;5095039;28;20868;-77
2023/11/16 01:09:37;;;;;;;0.50;0.50;;;7.80;99.90;;;;;;5095088;28;20506;-77
2023/11/16 01:12:04;;;;;;;4.03;0.37;;;7.80;99.90;;;;;;5095050;28;20464;-77
2023/11/16 01:14:31;;;;;;;0.73;0.40;;;7.80;99.90;;;;;;5095010;28;20444;-77
2023/11/16 01:17:04;;;;;;;0.40;0.30;;;7.80;99.90;;;;;;5094976;28;20440;-77
2023/11/16 01:19:32;;;;;;;0.40;0.40;;;7.80;99.90;;;;;;5095004;28;20493;-77
2023/11/16 01:22:00;;;;;;;0.40;0.40;;;7.80;99.90;;;;;;5094547;28;20908;-77
2023/11/16 01:24:28;;;;;;;0.40;0.40;;;7.90;99.90;;;;;;5094515;28;20448;-77
2023/11/16 01:26:59;;;;;;;0.40;0.30;;;7.80;99.90;;;;;;5094663;28;20475;-77
2023/11/16 01:29:27;;;;;;;0.30;0.30;;;7.80;99.90;;;;;;5094770;28;20436;-77
2023/11/16 01:31:55;;;;;;;0.50;0.50;;;7.80;99.90;;;;;;5094608;28;20459;-77
2023/11/16 01:34:24;;;;;;;0.40;0.40;;;7.80;99.90;;;;;;5094573;28;20451;-77
2023/11/16 01:36:51;;;;;;;0.97;0.40;;;7.80;99.90;;;;;;5094547;28;20436;-77
2023/11/16 01:39:18;;;;;;;4.43;0.40;;;7.90;99.90;;;;;;5094499;28;20444;-77
2023/11/16 01:41:45;;;;;;;0.40;0.40;;;7.90;99.90;;;;;;5094059;28;21029;-77
2023/11/16 01:44:12;;;;;;;0.87;0.60;;;7.90;99.90;;;;;;5094403;28;20439;-77
2023/11/16 01:46:40;;;;;;;0.50;0.40;;;7.90;99.90;;;;;;5094270;28;20846;-77
2023/11/16 01:49:09;;;;;;;2.00;0.70;;;7.90;99.90;;;;;;5094324;28;20489;-77
2023/11/16 01:51:43;;;;;;;0.57;0.50;;;7.90;99.90;;;;;;5094221;28;20470;-77
2023/11/16 01:54:11;;;;;;;0.33;0.33;;;7.90;99.90;;;;;;5094295;28;20486;-77
2023/11/16 01:56:39;;;;;;;0.40;0.40;;;7.90;99.90;;;;;;5094171;28;20432;-77
2023/11/16 01:59:08;;;;;;;0.40;0.33;;;7.90;99.90;;;;;;5094147;28;20440;-77
2023/11/16 02:01:36;;;;;;;0.30;0.30;;;7.90;99.90;;;;;;5094053;28;20474;-77
2023/11/16 02:04:04;;;;;;;0.37;0.30;;;7.90;99.90;;;;;;5094076;28;20443;-77
2023/11/16 02:06:31;;;;;;;0.50;0.50;;;7.80;99.90;;;;;;5093894;28;20519;-77
2023/11/16 02:08:59;;;;;;;0.47;0.47;;;7.90;99.90;;;;;;5094049;28;20447;-77
2023/11/16 02:11:27;;;;;;;0.40;0.30;;;7.90;99.90;;;;;;5093877;28;20460;-76
2023/11/16 02:13:53;;;;;;;0.40;0.40;;;7.90;99.90;;;;;;5093340;28;20444;-77
2023/11/16 02:16:20;;;;;;;0.90;0.40;;;7.90;99.90;;;;;;5093854;28;20440;-77
2023/11/16 02:18:47;;;;;;;0.30;0.30;;;7.90;99.90;;;;;;5093546;28;20819;-77
2023/11/16 02:21:14;;;;;;;0.40;0.40;;;7.90;99.90;;;;;;5093045;28;20955;-77
2023/11/16 02:23:43;;;;;;;0.60;0.50;;;7.90;99.90;;;;;;5093843;28;20778;-77
2023/11/16 02:26:10;;;;;;;0.40;0.30;;;7.90;99.90;;;;;;5093326;28;20427;-77
2023/11/16 02:28:38;;;;;;;0.60;0.40;;;7.80;99.90;;;;;;5094521;28;20443;-77
2023/11/16 02:31:06;;;;;;;10.47;0.50;;;7.80;99.90;;;;;;5093580;28;20816;-77
2023/11/16 02:33:34;;;;;;;4.13;0.57;;;7.80;99.90;;;;;;5093674;28;20450;-77
2023/11/16 02:36:00;;;;;;;0.30;0.30;;;7.70;99.90;;;;;;5093335;28;20989;-77
2023/11/16 02:38:27;;;;;;;1.87;1.20;;;7.70;99.90;;;;;;5093305;28;20436;-77
2023/11/16 02:40:56;;;;;;;15.80;0.50;;;7.70;99.90;;;;;;5093546;28;20474;-77
2023/11/16 02:43:28;;;;;;;0.50;0.50;;;7.60;99.90;;;;;;5093927;28;20476;-77
2023/11/16 02:45:55;;;;;;;2.40;0.40;;;7.60;99.90;;;;;;5093537;28;20435;-77
2023/11/16 02:48:21;;;;;;;0.80;0.40;;;7.70;99.90;;;;;;5093318;28;20483;-77
2023/11/16 02:50:49;;;;;;;0.90;0.63;;;7.70;99.90;;;;;;5093125;28;20924;-77
2023/11/16 02:53:16;;;;;;;0.60;0.60;;;7.70;99.90;;;;;;5093607;28;20467;-77
2023/11/16 02:55:42;;;;;;;0.40;0.40;;;7.80;99.90;;;;;;5093209;28;20446;-77
2023/11/16 02:58:11;;;;;;;12.00;1.47;;;7.80;99.90;;;;;;5093381;28;20439;-77
2023/11/16 03:00:38;;;;;;;0.50;0.50;;;7.80;99.90;;;;;;5093343;28;20483;-77
2023/11/16 03:03:05;;;;;;;0.50;0.37;;;7.80;99.90;;;;;;5093265;28;20809;-77
2023/11/16 03:05:33;;;;;;;4.53;0.40;;;7.80;99.90;;;;;;5093482;28;20440;-77
2023/11/16 03:07:59;;;;;;;0.30;0.30;;;7.80;99.90;;;;;;5093312;28;20472;-77
2023/11/16 03:10:28;;;;;;;0.30;0.30;;;7.70;99.90;;;;;;5093340;28;20474;-77
2023/11/16 03:12:56;;;;;;;0.97;0.33;;;7.60;99.90;;;;;;5093006;28;20502;-77
2023/11/16 03:15:24;;;;;;;0.77;0.50;;;7.60;99.90;;;;;;5092940;28;20509;-77
2023/11/16 03:17:51;;;;;;;0.40;0.40;;;7.60;99.90;;;;;;5093201;28;20444;-77
2023/11/16 03:20:18;;;;;;;5.40;0.50;;;7.60;99.90;;;;;;5093268;28;20440;-77
2023/11/16 03:22:45;;;;;;;0.50;0.40;;;7.60;99.90;;;;;;5092909;28;20839;-78
2023/11/16 03:25:12;;;;;;;0.40;0.30;;;7.50;99.90;;;;;;5093693;28;20440;-77
2023/11/16 03:27:42;;;;;;;1.23;0.40;;;7.50;99.90;;;;;;5097107;28;20479;-77
2023/11/16 03:30:09;;;;;;;0.30;0.30;;;7.50;99.90;;;;;;5096971;28;20500;-77
2023/11/16 03:32:37;;;;;;;0.43;0.43;;;7.50;99.90;;;;;;5096715;28;20468;-77
2023/11/16 03:35:05;;;;;;;0.50;0.37;;;7.50;99.90;;;;;;5097050;28;20451;-76
2023/11/16 03:37:31;;;;;;;0.30;0.30;;;7.50;99.90;;;;;;5096950;28;20442;-76
2023/11/16 03:39:58;;;;;;;2.20;0.50;;;7.50;99.90;;;;;;5096589;28;20927;-77
2023/11/16 03:42:25;;;;;;;0.60;0.40;;;7.50;99.90;;;;;;5096511;28;20463;-77
2023/11/16 03:44:51;;;;;;;0.30;0.30;;;7.50;99.90;;;;;;5096839;28;20446;-77
2023/11/16 03:47:18;;;;;;;2.50;0.53;;;7.50;99.90;;;;;;5096748;28;20479;-77
2023/11/16 03:49:46;;;;;;;0.83;0.37;;;7.50;99.90;;;;;;5096519;28;20448;-77
2023/11/16 03:52:13;;;;;;;0.40;0.40;;;7.40;99.90;;;;;;5096333;28;21003;-77
2023/11/16 03:54:42;;;;;;;2.60;0.40;;;7.40;99.90;;;;;;5096618;28;20536;-77
2023/11/16 03:57:11;;;;;;;0.40;0.30;;;7.40;99.90;;;;;;5096545;28;20489;-77
2023/11/16 03:59:37;;;;;;;0.80;0.37;;;7.40;99.90;;;;;;5096514;28;20448;-77
2023/11/16 04:02:05;;;;;;;0.87;0.50;;;7.30;99.90;;;;;;5096027;28;21025;-77
2023/11/16 04:04:32;;;;;;;0.40;0.30;;;7.30;99.90;;;;;;5096142;28;20440;-77
2023/11/16 04:07:00;;;;;;;0.40;0.30;;;7.30;99.90;;;;;;5096315;28;20478;-77
2023/11/16 04:09:26;;;;;;;0.63;0.30;;;7.40;99.90;;;;;;5096336;28;20440;-77
2023/11/16 04:11:53;;;;;;;0.40;0.40;;;7.40;99.90;;;;;;5096167;28;20460;-77
2023/11/16 04:14:20;;;;;;;0.70;0.43;;;7.40;99.90;;;;;;5096150;28;20494;-77
2023/11/16 04:16:52;;;;;;;0.50;0.50;;;7.50;99.90;;;;;;5096245;28;20816;-77
2023/11/16 04:19:20;;;;;;;0.70;0.70;;;7.40;99.90;;;;;;5096241;28;20435;-77
2023/11/16 04:21:47;;;;;;;1.27;0.80;;;7.40;99.90;;;;;;5096641;28;20484;-77
2023/11/16 04:24:16;;;;;;;0.40;0.40;;;7.50;99.90;;;;;;5096063;28;20440;-77
2023/11/16 04:26:45;;;;;;;0.40;0.30;;;7.50;99.90;;;;;;5095876;28;20854;-77
2023/11/16 04:29:14;;;;;;;1.50;0.83;;;7.50;99.90;;;;;;5095947;28;20451;-77
2023/11/16 04:31:42;;;;;;;7.73;0.83;;;7.60;99.90;;;;;;5096709;28;20896;-78
2023/11/16 04:34:11;;;;;;;0.40;0.30;;;7.50;99.90;;;;;;5096309;28;20452;-77
2023/11/16 04:36:41;;;;;;;0.50;0.47;;;7.50;99.90;;;;;;5095860;28;20487;-77
2023/11/16 04:39:08;;;;;;;0.40;0.40;;;7.50;99.90;;;;;;5096511;28;20535;-77
2023/11/16 04:41:37;;;;;;;1.60;0.30;;;7.60;99.90;;;;;;5096189;28;20882;-77
2023/11/16 04:44:04;;;;;;;6.73;0.60;;;7.60;99.90;;;;;;5096168;28;20448;-77
2023/11/16 04:46:31;;;;;;;10.53;0.80;;;7.50;99.90;;;;;;5096008;28;20443;-77
2023/11/16 04:48:59;;;;;;;6.53;0.50;;;7.60;99.90;;;;;;5095435;28;20487;-77
2023/11/16 04:51:25;;;;;;;0.63;0.53;;;7.60;99.90;;;;;;5095567;28;20464;-78
2023/11/16 04:53:52;;;;;;;0.50;0.50;;;7.50;99.90;;;;;;5095849;28;20440;-78
2023/11/16 04:56:19;;;;;;;0.57;0.57;;;7.50;99.90;;;;;;5095701;28;20451;-77
2023/11/16 04:58:48;;;;;;;0.50;0.30;;;7.50;99.90;;;;;;5095681;28;20482;-77
2023/11/16 05:01:16;;;;;;;0.30;0.30;;;7.50;99.90;;;;;;5095154;28;20444;-77
2023/11/16 05:03:44;;;;;;;0.37;0.30;;;7.50;99.90;;;;;;5095914;28;20451;-77
2023/11/16 05:06:11;;;;;;;0.43;0.43;;;7.50;99.90;;;;;;5096478;28;20444;-78
2023/11/16 05:08:40;;;;;;;0.50;0.50;;;7.50;99.90;;;;;;5095508;28;20529;-77
2023/11/16 05:11:06;;;;;;;0.30;0.30;;;7.50;99.90;;;;;;5095402;28;20448;-77
2023/11/16 05:13:33;;;;;;;2.10;0.50;;;7.50;99.90;;;;;;5095437;28;20462;-77
2023/11/16 05:16:02;;;;;;;3.00;0.87;;;7.40;99.90;;;;;;5095447;28;20505;-77
2023/11/16 05:18:29;;;;;;;0.53;0.50;;;7.40;99.90;;;;;;5094900;28;20954;-77
2023/11/16 05:20:58;;;;;;;0.30;0.30;;;7.40;99.90;;;;;;5095195;28;20440;-77
2023/11/16 05:23:26;;;;;;;0.40;0.30;;;7.30;99.90;;;;;;5118277;22;20502;-80
2023/11/16 05:25:53;;;;;;;0.43;0.30;;;7.30;99.90;;;;;;5095114;28;20966;-80
2023/11/16 05:28:19;;;;;;;0.40;0.30;;;7.30;99.90;;;;;;5095082;28;20480;-80
2023/11/16 05:30:48;;;;;;;0.40;0.37;;;7.30;99.90;;;;;;5095590;28;20451;-80
2023/11/16 05:33:16;;;;;;;0.50;0.40;;;7.20;99.90;;;;;;5094919;28;20467;-80
2023/11/16 05:35:43;;;;;;;0.33;0.33;;;7.20;99.90;;;;;;5094931;28;20819;-80
2023/11/16 05:38:10;;;;;;;0.43;0.40;;;7.20;99.90;;;;;;5094877;28;20513;-80
2023/11/16 05:40:37;;;;;;;0.40;0.40;;;7.30;99.90;;;;;;5094623;28;20428;-81
2023/11/16 05:43:04;;;;;;;0.53;0.30;;;7.30;99.90;;;;;;5094653;28;20506;-80
2023/11/16 05:45:31;;;;;;;0.40;0.30;;;7.30;99.90;;;;;;5094755;28;20452;-80
2023/11/16 05:47:58;;;;;;;0.70;0.67;;;7.30;99.90;;;;;;5093802;28;20563;-80
2023/11/16 05:50:26;;;;;;;1.53;0.47;;;7.40;99.90;;;;;;5094654;28;20448;-80
2023/11/16 05:52:55;;;;;;;0.40;0.40;;;7.40;99.90;;;;;;5094544;28;20471;-80
2023/11/16 05:55:25;;;;;;;0.90;0.60;;;7.40;99.90;;;;;;5094201;28;21019;-80
2023/11/16 05:57:52;;;;;;;1.27;0.53;;;7.40;99.90;;;;;;5094535;28;20467;-79
2023/11/16 06:00:20;;;;;;;0.30;0.30;;;7.50;99.90;;;;;;5094342;28;20428;-80
2023/11/16 06:02:47;;;;;;;0.40;0.30;;;7.50;99.90;;;;;;5094457;28;20554;-80
2023/11/16 06:05:13;;;;;;;1.93;0.97;;;7.50;99.90;;;;;;5094614;28;20542;-80
2023/11/16 06:07:41;;;;;;;2.53;0.67;;;7.50;99.90;;;;;;5093925;28;21010;-80
2023/11/16 06:10:10;;;;;;;1.33;0.40;;;7.50;99.90;;;;;;5094298;28;20451;-80
2023/11/16 06:12:37;;;;;;;0.30;0.30;;;7.50;99.90;;;;;;5094373;28;20468;-80
2023/11/16 06:15:06;;;;;;;0.40;0.40;;;7.50;99.90;;;;;;5094399;28;20816;-80
2023/11/16 06:17:32;;;;;;;3.43;0.57;;;7.50;99.90;;;;;;5112173;28;20440;-79
2023/11/16 06:19:59;;;;;;;0.40;0.30;;;7.50;99.90;;;;;;5099165;28;20881;-79
2023/11/16 06:22:26;;;;;;;1.43;0.50;;;7.50;99.90;;;;;;5093901;28;20478;-80
2023/11/16 06:24:54;;;;;;;0.40;0.30;;;7.40;99.90;;;;;;5093997;28;20447;-80
2023/11/16 06:27:21;;;;;;;0.57;0.57;;;7.40;99.90;;;;;;5093757;28;20805;-80
2023/11/16 06:29:47;;;;;;;0.60;0.40;;;7.40;99.90;;;;;;5093814;28;20948;-80
2023/11/16 06:32:14;;;;;;;0.70;0.40;;;7.40;99.90;;;;;;5093821;28;20464;-80
2023/11/16 06:34:41;;;;;;;7.20;0.60;;;7.30;99.90;;;;;;5093743;28;20440;-80
2023/11/16 06:37:08;;;;;;;0.50;0.40;;;7.30;99.90;;;;;;5093710;28;20450;-80
2023/11/16 06:39:35;;;;;;;0.40;0.40;;;7.20;99.90;;;;;;5093857;28;20451;-80
2023/11/16 06:42:03;;;;;;;0.50;0.50;;;7.20;99.90;;;;;;5093707;28;20463;-81
2023/11/16 06:44:30;;;;;;;0.87;0.50;;;7.20;99.90;;;;;;5093863;28;20448;-80
2023/11/16 06:46:57;;;;;;;0.43;0.43;;;7.20;99.90;;;;;;5093843;28;20458;-80
2023/11/16 06:49:26;;;;;;;0.33;0.30;;;7.20;99.90;;;;;;5093816;28;20491;-80
2023/11/16 06:51:53;;;;;;;0.60;0.50;;;7.10;99.90;;;;;;5093587;28;20467;-80
2023/11/16 06:54:21;;;;;;;0.53;0.53;;;7.10;99.90;;;;;;5093752;28;20443;-80
2023/11/16 06:56:49;;;;;;;0.60;0.47;;;7.10;99.90;;;;;;5093805;28;20854;-80
2023/11/16 06:59:19;;;;;;;0.30;0.30;;;7.10;99.90;;;;;;5094333;28;20443;-80
2023/11/16 07:01:47;;;;;;;0.40;0.40;;;7.10;99.90;;;;;;5098055;28;20464;-81
2023/11/16 07:04:15;;;;;;;0.57;0.57;;;7.10;99.90;;;;;;5098138;28;20439;-80
2023/11/16 07:06:42;;;;;;;0.37;0.30;;;7.10;99.90;;;;;;5098076;28;20524;-80
2023/11/16 07:09:11;;;;;;;0.40;0.30;;;7.10;99.90;;;;;;5097917;28;20540;-80
2023/11/16 07:11:38;;;;;;;0.40;0.40;;;7.10;99.90;;;;;;5097721;28;20479;-80
2023/11/16 07:14:06;;;;;;;0.60;0.50;;;7.20;99.90;;;;;;5097711;28;20859;-80
2023/11/16 07:16:34;;;;;;;0.60;0.50;;;7.20;99.90;;;;;;5098044;28;20447;-80
2023/11/16 07:19:01;;;;;;;0.93;0.70;;;7.30;99.90;;;;;;5097714;28;20807;-80
2023/11/16 07:21:27;;;;;;;5.20;0.53;;;7.30;99.90;;;;;;5097408;28;20451;-80
2023/11/16 07:23:54;;;;;;;2.70;0.67;;;7.40;99.90;;;;;;5097648;28;20907;-80
2023/11/16 07:26:21;;;;;;;2.57;0.40;;;7.40;99.90;;;;;;5097378;28;20451;-80
2023/11/16 07:28:48;;;;;;;4.43;0.70;;;7.40;99.90;;;;;;5097415;28;20471;-80
2023/11/16 07:31:19;;;;;;;0.50;0.50;;;7.40;99.90;;;;;;5097922;28;20440;-80
2023/11/16 07:33:51;;;;;;;3.47;0.40;;;7.50;99.90;;;;;;5099190;28;20832;-79
2023/11/16 07:36:23;;;;;;;0.43;0.43;;;7.50;99.90;;;;;;5097444;28;20451;-80
2023/11/16 07:38:49;;;;;;;0.40;0.30;;;7.60;99.90;;;;;;5097744;28;20417;-80
2023/11/16 07:41:16;;;;;;;0.43;0.43;;;7.60;99.90;;;;;;5097280;28;20842;-80
2023/11/16 07:43:43;;;;;;;0.87;0.60;;;7.60;99.90;;;;;;5097340;28;20455;-80
2023/11/16 07:46:10;;;;;;;0.30;0.30;;;7.60;99.90;;;;;;5097584;28;20447;-80
2023/11/16 07:48:39;;;;;;;0.60;0.40;;;7.60;99.90;;;;;;5097542;28;20502;-80
2023/11/16 07:51:07;;;;;;;1.73;0.70;;;7.70;99.90;;;;;;5097483;28;20450;-80
2023/11/16 07:53:34;;;;;;;0.83;0.70;;;7.80;99.90;;;;;;5096666;28;20493;-80
2023/11/16 07:56:05;;;;;;;0.73;0.73;;;7.80;99.90;;;;;;5097126;28;20564;-80
2023/11/16 07:58:33;;;;;;;1.10;0.40;;;7.90;99.90;;;;;;5097329;28;20429;-80
2023/11/16 08:01:11;;;;;;;1.13;0.50;;;7.90;99.90;;;;;;5096909;28;20455;-79
2023/11/16 08:03:43;;;;;;;0.40;0.30;;;8.00;99.90;;;;;;5097374;28;20870;-80
2023/11/16 08:06:14;;;;;;;0.60;0.50;;;8.00;99.90;;;;;;5097168;28;20448;-80
2023/11/16 08:08:45;;;;;;;1.50;0.50;;;8.00;99.90;;;;;;5097329;28;20558;-80
2023/11/16 08:11:13;;;;;;;0.40;0.40;;;8.10;99.90;;;;;;5096357;28;20431;-79
2023/11/16 08:13:41;;;;;;;0.93;0.93;;;8.10;99.90;;;;;;5097854;28;20476;-79
2023/11/16 08:16:09;;;;;;;0.90;0.50;;;8.10;99.90;;;;;;5098465;28;20439;-80
2023/11/16 08:18:37;;;;;;;0.30;0.30;;;8.10;99.90;;;;;;5098161;28;20538;-80
2023/11/16 08:21:06;;;;;;;0.40;0.40;;;8.20;99.90;;;;;;5097732;28;20443;-79
2023/11/16 08:23:34;;;;;;;0.40;0.40;;;8.20;99.90;;;;;;5097016;28;20498;-80
2023/11/16 08:26:01;;;;;;;0.60;0.50;;;8.30;99.90;;;;;;5098575;28;20444;-78
2023/11/16 08:28:28;;;;;;;0.30;0.30;;;8.30;99.90;;;;;;5101347;28;20483;-79
2023/11/16 08:30:58;;;;;;;0.50;0.50;;;8.30;99.90;;;;;;5096305;28;20444;-79
2023/11/16 08:33:25;;;;;;;0.93;0.60;;;8.40;99.90;;;;;;5095995;28;20464;-80
2023/11/16 08:35:53;;;;;;;0.50;0.50;;;8.40;99.90;;;;;;5095855;28;20818;-80
2023/11/16 08:38:25;;;;;;;0.63;0.50;;;8.50;99.90;;;;;;5095959;28;20493;-80
2023/11/16 08:40:54;;;;;;;0.30;0.30;;;8.50;99.90;;;;;;5095899;28;20445;-80
2023/11/16 08:43:22;;;;;;;0.60;0.60;;;8.60;99.90;;;;;;5096038;28;20464;-82
2023/11/16 08:45:51;;;;;;;5.60;0.50;;;8.60;99.90;;;;;;5096260;28;20448;-82
2023/11/16 08:48:30;;;;;;;0.50;0.40;;;8.60;99.90;;;;;;5095900;28;20448;-80
2023/11/16 08:50:58;;;;;;;1.10;0.57;;;8.60;99.90;;;;;;5095813;28;20477;-79
2023/11/16 08:53:27;;;;;;;1.63;0.37;;;8.50;99.90;;;;;;5095182;28;20987;-80
2023/11/16 08:55:56;;;;;;;1.50;0.50;;;8.50;99.90;;;;;;5095508;28;20448;-80
2023/11/16 08:58:23;;;;;;;0.60;0.50;;;8.60;99.90;;;;;;5095478;28;20448;-80
2023/11/16 09:00:50;;;;;;;0.70;0.67;;;8.60;99.90;;;;;;5095424;28;20448;-80
2023/11/16 09:03:18;;;;;;;8.50;0.80;;;8.50;99.90;;;;;;5095426;28;20460;-80
2023/11/16 09:05:45;;;;;;;0.90;0.60;;;8.50;99.90;;;;;;5095431;28;20475;-80
2023/11/16 09:08:13;;;;;;;0.40;0.40;;;8.50;99.90;;;;;;5095188;28;20435;-83
2023/11/16 09:10:42;;;;;;;0.60;0.60;;;8.50;99.90;;;;;;5095850;28;20454;-80
2023/11/16 09:13:11;;;;;;;1.17;0.60;;;8.50;99.90;;;;;;5095291;28;20517;-80
2023/11/16 09:15:38;;;;;;;0.60;0.40;;;8.60;99.90;;;;;;5095299;28;20428;-80
2023/11/16 09:18:05;;;;;;;0.80;0.40;;;8.70;99.90;;;;;;5095061;28;20463;-80
2023/11/16 09:20:33;;;;;;;0.40;0.40;;;8.70;99.90;;;;;;5095431;28;20444;-80
2023/11/16 09:23:00;;;;;;;0.40;0.40;;;8.70;99.90;;;;;;5094473;28;20522;-79
2023/11/16 09:25:29;;;;;;;0.37;0.37;;;8.70;99.90;;;;;;5095028;28;20444;-80
2023/11/16 09:27:56;;;;;;;1.37;0.50;;;8.80;99.90;;;;;;5095155;28;20448;-80
2023/11/16 09:30:27;;;;;;;0.57;0.57;;;8.80;99.90;;;;;;5094810;28;20831;-79
2023/11/16 09:32:55;;;;;;;0.50;0.50;;;8.70;99.90;;;;;;5095841;28;20476;-79
2023/11/16 09:35:22;;;;;;;0.50;0.50;;;8.70;99.90;;;;;;5094863;28;20854;-79
2023/11/16 09:37:52;;;;;;;0.63;0.63;;;8.70;99.90;;;;;;5094902;28;20852;-79
2023/11/16 09:40:21;;;;;;;0.40;0.40;;;8.60;99.90;;;;;;5094790;28;20473;-80
2023/11/16 09:42:49;;;;;;;0.73;0.73;;;8.70;99.90;;;;;;5094678;28;20963;-80
2023/11/16 09:45:20;;;;;;;0.40;0.30;;;8.70;99.90;;;;;;5094704;28;20479;-79
2023/11/16 09:47:57;;;;;;;0.40;0.37;;;8.80;99.90;;;;;;5094732;28;20926;-80
2023/11/16 09:50:26;;;;;;;0.37;0.37;;;8.80;99.90;;;;;;5094553;28;20938;-80
2023/11/16 09:52:55;;;;;;;2.20;0.50;;;8.80;99.90;;;;;;5094128;28;21105;-79
2023/11/16 09:55:23;;;;;;;0.40;0.40;;;8.90;99.90;;;;;;5094624;28;20527;-80
2023/11/16 09:57:52;;;;;;;1.90;0.70;;;8.90;99.90;;;;;;5093983;28;20448;-79
2023/11/16 10:00:20;;;;;;;0.47;0.47;;;8.90;99.90;;;;;;5094306;28;20532;-79
2023/11/16 10:02:55;;;;;;;1.03;0.50;;;9.00;99.90;;;;;;5094280;28;20863;-79
2023/11/16 10:05:24;;;;;;;0.63;0.40;;;8.90;99.90;;;;;;5094288;28;20432;-80
2023/11/16 10:07:56;;;;;;;0.30;0.30;;;8.90;99.90;;;;;;5093924;28;20943;-79
2023/11/16 10:10:29;;;;;;;0.70;0.60;;;8.90;99.90;;;;;;5094098;28;20504;-80
2023/11/16 10:12:56;;;;;;;3.17;0.70;;;8.90;99.90;;;;;;5094101;28;20464;-80
2023/11/16 10:15:24;;;;;;;2.00;0.87;;;8.90;99.90;;;;;;5093877;28;20452;-79
2023/11/16 10:17:56;;;;;;;0.60;0.50;;;8.90;99.90;;;;;;5094037;28;20940;-79
2023/11/16 10:20:24;;;;;;;7.40;0.67;;;8.90;99.90;;;;;;5095992;28;20525;-83
2023/11/16 10:22:53;;;;;;;0.30;0.30;;;9.00;99.90;;;;;;5094204;28;20898;-82
2023/11/16 10:25:23;;;;;;;9.50;0.93;;;9.00;99.90;;;;;;5094200;28;20452;-82
2023/11/16 10:27:50;;;;;;;0.50;0.50;;;9.00;99.90;;;;;;5094683;28;20452;-82
2023/11/16 10:30:18;;;;;;;3.87;0.83;;;9.00;99.90;;;;;;5094836;28;20472;-80
2023/11/16 10:32:47;;;;;;;0.63;0.40;;;9.00;99.90;;;;;;5093444;28;20976;-77
2023/11/16 10:35:17;;;;;;;0.40;0.37;;;9.00;99.90;;;;;;5093324;28;20466;-77
2023/11/16 10:37:45;;;;;;;0.40;0.40;;;8.90;99.90;;;;;;5093546;28;20424;-77
2023/11/16 10:40:13;;;;;;;2.80;0.73;;;8.90;99.90;;;;;;5093880;28;20447;-77
2023/11/16 10:42:41;;;;;;;0.50;0.40;;;8.90;99.90;;;;;;5114953;28;20536;-77
2023/11/16 10:45:12;;;;;;;4.30;0.70;;;8.90;99.90;;;;;;5095166;28;20518;-77
2023/11/16 10:47:41;;;;;;;0.73;0.40;;;8.90;99.90;;;;;;5094158;28;20831;-78
2023/11/16 10:50:10;;;;;;;0.40;0.40;;;8.80;99.90;;;;;;5093596;28;21059;-78
2023/11/16 10:52:40;;;;;;;4.00;1.33;;;8.80;99.90;;;;;;5093643;28;20533;-78
2023/11/16 10:55:16;;;;;;;0.60;0.50;;;8.90;99.90;;;;;;5093346;28;20429;-78
2023/11/16 10:57:43;;;;;;;0.70;0.60;;;8.90;99.90;;;;;;5093489;28;20436;-78
2023/11/16 11:00:16;;;;;;;0.87;0.87;;;9.00;99.90;;;;;;5093452;28;20441;-78
2023/11/16 11:02:44;;;;;;;0.40;0.40;;;9.00;99.90;;;;;;5093343;28;20479;-78
2023/11/16 11:05:11;;;;;;;0.60;0.50;;;9.00;99.90;;;;;;5093407;28;20440;-78
2023/11/16 11:07:48;;;;;;;0.50;0.50;;;8.90;99.90;;;;;;5093197;28;20436;-79
2023/11/16 11:10:17;;;;;;;0.30;0.30;;;9.00;99.90;;;;;;5093062;28;20464;-78
2023/11/16 11:12:46;;;;;;;0.40;0.40;;;8.90;99.90;;;;;;5093258;28;20460;-78
2023/11/16 11:15:14;;;;;;;2.10;0.53;;;9.00;99.90;;;;;;5093322;28;20492;-78
2023/11/16 11:17:43;;;;;;;0.83;0.60;;;9.10;99.90;;;;;;5093373;28;20916;-79
2023/11/16 11:20:11;;;;;;;1.23;0.50;;;9.20;99.90;;;;;;5093210;28;20436;-79
2023/11/16 11:25:10;;;;;;;1.27;0.50;;;9.30;99.90;;;;;;5092853;28;20477;-78
2023/11/16 11:27:39;;;;;;;0.57;0.57;;;9.40;99.90;;;;;;5094239;28;20429;-78
2023/11/16 11:30:11;;;;;;;1.20;0.40;;;9.50;99.90;;;;;;5094251;28;20483;-78
2023/11/16 11:32:43;;;;;;;1.47;0.50;;;9.60;99.90;;;;;;5094281;28;20822;-78
2023/11/16 11:35:11;;;;;;;1.90;1.03;;;9.60;99.90;;;;;;5093586;28;20427;-78
2023/11/16 11:37:39;;;;;;;0.60;0.60;;;9.50;99.90;;;;;;5094095;28;20444;-78
2023/11/16 11:40:08;;;;;;;3.90;0.50;;;9.50;99.90;;;;;;5093917;28;20436;-78
2023/11/16 11:42:37;;;;;;;5.63;0.90;;;9.40;99.90;;;;;;5093911;28;20532;-78
2023/11/16 11:45:06;;;;;;;0.90;0.43;;;9.40;99.90;;;;;;5096466;28;20447;-78
2023/11/16 11:47:33;;;;;;;0.37;0.37;;;9.30;99.90;;;;;;5097162;28;20472;-80
2023/11/16 11:50:01;;;;;;;0.47;0.47;;;9.40;99.90;;;;;;5097310;28;20479;-78
2023/11/16 11:52:29;;;;;;;0.50;0.40;;;9.40;99.90;;;;;;5096811;28;20948;-78
2023/11/16 11:54:56;;;;;;;0.50;0.40;;;9.40;99.90;;;;;;5096833;28;20923;-78
2023/11/16 11:57:24;;;;;;;6.13;0.77;;;9.30;99.90;;;;;;5096760;28;20444;-78
2023/11/16 11:59:51;;;;;;;0.40;0.40;;;9.30;99.90;;;;;;5096850;28;20417;-78
2023/11/16 12:02:19;;;;;;;3.13;0.40;;;9.20;99.90;;;;;;5096672;28;20834;-78
2023/11/16 12:04:46;;;;;;;0.40;0.37;;;9.20;99.90;;;;;;5096379;28;20940;-78
2023/11/16 12:07:13;;;;;;;2.00;0.70;;;9.20;99.90;;;;;;5096382;28;20924;-78
2023/11/16 12:09:41;;;;;;;0.50;0.40;;;9.10;99.90;;;;;;5096755;28;20479;-78
2023/11/16 12:12:09;;;;;;;0.37;0.37;;;9.20;99.90;;;;;;5096875;28;20448;-78
2023/11/16 12:14:43;;;;;;;0.40;0.40;;;9.20;99.90;;;;;;5096733;28;20467;-78
2023/11/16 12:17:10;;;;;;;1.00;0.40;;;9.20;99.90;;;;;;5097178;28;20487;-78
2023/11/16 12:19:37;;;;;;;0.50;0.50;;;9.10;99.90;;;;;;5096739;28;20440;-78
2023/11/16 12:22:06;;;;;;;0.53;0.53;;;9.10;99.90;;;;;;5097267;28;20448;-78
2023/11/16 12:24:34;;;;;;;0.83;0.60;;;9.10;99.90;;;;;;5096353;28;20475;-78
2023/11/16 12:27:01;;;;;;;1.80;0.93;;;9.10;99.90;;;;;;5096597;28;20941;-78
2023/11/16 12:29:28;;;;;;;0.50;0.50;;;9.10;99.90;;;;;;5096400;28;20521;-78
2023/11/16 12:31:56;;;;;;;0.80;0.80;;;9.00;99.90;;;;;;5096607;28;20490;-78
2023/11/16 12:34:24;;;;;;;2.50;0.60;;;9.00;99.90;;;;;;5095933;28;20987;-78
2023/11/16 12:36:54;;;;;;;0.50;0.50;;;9.00;99.90;;;;;;5096929;28;20429;-79
2023/11/16 12:39:25;;;;;;;0.40;0.40;;;9.00;99.90;;;;;;5097808;28;20489;-79
2023/11/16 12:41:52;;;;;;;13.70;0.80;;;9.00;99.90;;;;;;5097167;28;20429;-78
2023/11/16 12:44:19;;;;;;;10.43;0.60;;;9.00;99.90;;;;;;5096386;28;20468;-78
2023/11/16 12:46:47;;;;;;;0.43;0.40;;;9.00;99.90;;;;;;5097337;28;20447;-78
2023/11/16 12:49:15;;;;;;;0.63;0.50;;;9.00;99.90;;;;;;5098900;28;20522;-79
2023/11/16 12:51:42;;;;;;;2.17;0.63;;;8.90;99.90;;;;;;5098752;28;20484;-78
2023/11/16 12:54:09;;;;;;;0.80;0.80;;;8.80;99.90;;;;;;5097255;28;20455;-78
2023/11/16 12:56:37;;;;;;;1.40;0.53;;;8.70;99.90;;;;;;5099683;28;20444;-79
2023/11/16 12:59:06;;;;;;;0.97;0.97;;;8.70;99.90;;;;;;5097977;28;20971;-79
2023/11/16 13:01:33;;;;;;;1.10;0.50;;;8.70;99.90;;;;;;5096792;28;20474;-79
2023/11/16 13:04:00;;;;;;;0.50;0.50;;;8.60;99.90;;;;;;5097251;28;20460;-79